createdAt,value
2023-01-24T00:03:23.851Z,-4.79
2023-01-24T00:08:27.480Z,-4.89
2023-01-24T00:13:31.238Z,-4.87
2023-01-24T00:18:36.380Z,-4.80
2023-01-24T00:23:40.929Z,-4.80
2023-01-24T00:28:44.221Z,-4.85
2023-01-24T00:33:49.388Z,-4.90
2023-01-24T00:38:52.757Z,-4.94
2023-01-24T00:43:56.071Z,-4.96
2023-01-24T00:49:01.358Z,-4.97
2023-01-24T00:54:05.329Z,-4.95
2023-01-24T00:59:08.564Z,-4.91
2023-01-24T01:04:14.036Z,-4.84
2023-01-24T01:09:17.552Z,-4.74
2023-01-24T01:14:21.007Z,-4.65
2023-01-24T01:19:25.708Z,-4.61
2023-01-24T01:24:29.111Z,-4.60
2023-01-24T01:29:32.568Z,-4.66
2023-01-24T01:34:37.902Z,-4.73
2023-01-24T01:39:41.168Z,-4.78
2023-01-24T01:44:48.203Z,-4.80
2023-01-24T01:49:59.486Z,-4.84
2023-01-24T01:55:06.709Z,-4.85
2023-01-24T02:00:15.391Z,-4.89
2023-01-24T02:05:25.183Z,-4.92
2023-01-24T02:10:50.909Z,-4.94
2023-01-24T02:16:12.624Z,-4.95
2023-01-24T02:21:18.618Z,-5.00
2023-01-24T02:26:25.472Z,-5.06
2023-01-24T02:31:29.655Z,-5.08
2023-01-24T02:36:36.175Z,-5.11
2023-01-24T02:41:46.812Z,-5.09
2023-01-24T02:46:50.091Z,-5.07
2023-01-24T02:52:10.784Z,-5.11
2023-01-24T02:57:33.106Z,-5.09
2023-01-24T03:02:36.458Z,-5.07
2023-01-24T03:07:45.492Z,-5.12
2023-01-24T03:13:07.546Z,-5.13
2023-01-24T03:18:28.876Z,-5.16
2023-01-24T03:23:49.267Z,-5.15
2023-01-24T03:29:11.753Z,-5.20
2023-01-24T03:34:33.895Z,-5.23
2023-01-24T03:39:54.540Z,-5.24
2023-01-24T03:44:59.388Z,-5.24
2023-01-24T03:50:19.849Z,-5.22
2023-01-24T03:55:24.037Z,-5.22
2023-01-24T04:00:29.301Z,-5.26
2023-01-24T04:05:34.725Z,-5.28
2023-01-24T04:10:38.189Z,-5.26
2023-01-24T04:15:42.920Z,-5.24
2023-01-24T04:20:46.321Z,-5.29
2023-01-24T04:25:57.867Z,-5.39
2023-01-24T04:31:04.522Z,-5.23
2023-01-24T04:36:10.606Z,-5.21
2023-01-24T04:41:15.289Z,-5.23
2023-01-24T04:46:20.213Z,-5.27
2023-01-24T04:51:23.612Z,-5.29
2023-01-24T04:56:27.161Z,-5.27
2023-01-24T05:01:31.964Z,-5.26
2023-01-24T05:06:36.484Z,-5.20
2023-01-24T05:11:39.917Z,-5.15
2023-01-24T05:16:44.994Z,-5.13
2023-01-24T05:21:48.310Z,-5.11
2023-01-24T05:26:51.874Z,-5.07
2023-01-24T05:31:56.754Z,-5.06
2023-01-24T05:37:00.097Z,-5.09
2023-01-24T05:42:03.480Z,-5.10
2023-01-24T05:47:08.362Z,-5.12
2023-01-24T05:52:11.705Z,-5.12
2023-01-24T05:57:15.153Z,-5.05
2023-01-24T06:02:19.854Z,-4.98
2023-01-24T06:07:23.217Z,-4.91
2023-01-24T06:12:26.653Z,-4.82
2023-01-24T06:17:31.413Z,-4.74
2023-01-24T06:22:43.349Z,-4.65
2023-01-24T06:27:47.463Z,-4.54
2023-01-24T06:33:19.425Z,-4.43
2023-01-24T06:38:25.781Z,-4.39
2023-01-24T06:43:29.642Z,-4.34
2023-01-24T06:48:34.354Z,-4.22
2023-01-24T06:53:37.654Z,-4.22
2023-01-24T06:58:40.910Z,-4.16
2023-01-24T07:03:45.672Z,-3.93
2023-01-24T07:08:49.242Z,-3.57
2023-01-24T07:13:52.694Z,-3.39
2023-01-24T07:18:58.511Z,-3.42
2023-01-24T07:24:02.221Z,-3.40
2023-01-24T07:29:05.708Z,-3.25
2023-01-24T07:34:13.358Z,-2.68
2023-01-24T07:39:18.951Z,-2.14
2023-01-24T07:44:22.276Z,-1.93
2023-01-24T07:49:27.005Z,-1.94
2023-01-24T07:54:30.355Z,-2.15
2023-01-24T07:59:38.540Z,-2.24
2023-01-24T08:04:43.963Z,-2.31
2023-01-24T08:09:48.193Z,-2.28
2023-01-24T08:14:51.658Z,-2.17
2023-01-24T08:19:57.792Z,-2.09
2023-01-24T08:25:01.685Z,-2.03
2023-01-24T08:30:08.816Z,-2.08
2023-01-24T08:35:13.835Z,-2.03
2023-01-24T08:40:17.425Z,-1.99
2023-01-24T08:45:20.880Z,-1.98
2023-01-24T08:50:25.701Z,-1.81
2023-01-24T08:55:29.164Z,-1.84
2023-01-24T09:00:33.403Z,-1.93
2023-01-24T09:05:39.736Z,-1.87
2023-01-24T09:10:43.007Z,-1.89
2023-01-24T09:15:47.258Z,-1.79
2023-01-24T09:20:52.217Z,-1.62
2023-01-24T09:25:55.931Z,-1.57
2023-01-24T09:30:59.495Z,-1.45
2023-01-24T09:36:06.076Z,-1.37
2023-01-24T09:41:19.517Z,-1.25
2023-01-24T09:46:29.814Z,-1.04
2023-01-24T09:51:39.192Z,-1.05
2023-01-24T09:56:45.567Z,-1.04
2023-01-24T10:01:49.594Z,-1.02
2023-01-24T10:07:27.956Z,-0.27
2023-01-24T10:12:58.679Z,1.17
2023-01-24T10:18:16.714Z,1.08
2023-01-24T10:23:27.538Z,0.89
2023-01-24T10:28:38.644Z,0.92
2023-01-24T10:33:48.590Z,0.75
2023-01-24T10:38:53.256Z,0.53
2023-01-24T10:44:00.900Z,0.09
2023-01-24T10:49:09.866Z,-0.18
2023-01-24T10:54:23.787Z,-0.43
2023-01-24T10:59:27.323Z,-0.81
2023-01-24T11:04:32.580Z,-0.99
2023-01-24T11:09:37.443Z,-1.17
2023-01-24T11:14:41.174Z,-1.22
2023-01-24T11:19:44.767Z,-1.35
2023-01-24T11:24:50.340Z,-1.36
2023-01-24T11:30:09.377Z,-1.32
2023-01-24T11:35:14.388Z,-1.37
2023-01-24T11:40:31.435Z,-1.45
2023-01-24T11:46:28.621Z,-1.42
2023-01-24T11:51:52.526Z,-1.41
2023-01-24T11:57:04.595Z,-1.49
2023-01-24T12:02:26.625Z,-1.46
2023-01-24T12:07:40.941Z,-1.53
2023-01-24T12:12:56.225Z,-1.52
2023-01-24T12:18:28.624Z,-1.49
2023-01-24T12:23:43.709Z,-1.49
2023-01-24T12:29:02.756Z,-1.56
2023-01-24T12:34:22.487Z,-1.62
2023-01-24T12:39:33.046Z,-1.68
2023-01-24T12:44:45.318Z,-1.75
2023-01-24T12:49:57.879Z,-1.81
2023-01-24T12:55:14.064Z,-1.86
2023-01-24T13:00:21.832Z,-1.94
2023-01-24T13:05:37.292Z,-2.06
2023-01-24T13:10:50.954Z,-2.14
2023-01-24T13:16:09.191Z,-2.22
2023-01-24T13:21:21.520Z,-2.33
2023-01-24T13:27:00.652Z,-2.39
2023-01-24T13:32:12.731Z,-2.46
2023-01-24T13:37:22.562Z,-2.56
2023-01-24T13:42:35.600Z,-2.64
2023-01-24T13:47:40.713Z,-2.71
2023-01-24T13:52:49.252Z,-2.79
2023-01-24T13:58:23.841Z,-2.86
2023-01-24T14:03:35.585Z,-2.88
2023-01-24T14:08:46.884Z,-2.94
2023-01-24T14:14:03.787Z,-3.02
2023-01-24T14:19:18.440Z,-3.05
2023-01-24T14:24:26.965Z,-3.08
2023-01-24T14:29:39.454Z,-3.16
2023-01-24T14:34:49.509Z,-3.17
2023-01-24T14:39:53.095Z,-3.20
2023-01-24T14:45:01.459Z,-3.22
2023-01-24T14:50:23.993Z,-3.25
2023-01-24T14:55:35.999Z,-3.29
2023-01-24T15:00:39.489Z,-3.31
2023-01-24T15:06:02.104Z,-3.36
2023-01-24T15:11:08.630Z,-3.36
2023-01-24T15:16:19.704Z,-3.40
2023-01-24T15:21:34.675Z,-3.42
2023-01-24T15:26:43.952Z,-3.60
2023-01-24T15:31:52.320Z,-3.46
2023-01-24T15:37:02.211Z,-3.46
2023-01-24T15:42:25.857Z,-3.47
2023-01-24T15:47:55.376Z,-3.48
2023-01-24T15:53:28.921Z,-3.52
2023-01-24T15:58:33.439Z,-3.63
2023-01-24T16:03:37.338Z,-3.56
2023-01-24T16:08:42.011Z,-3.58
2023-01-24T16:13:49.608Z,-3.59
2023-01-24T16:18:53.133Z,-3.58
2023-01-24T16:23:58.211Z,-3.59
2023-01-24T16:29:01.694Z,-3.60
2023-01-24T16:34:05.155Z,-3.60
2023-01-24T16:39:15.788Z,-3.60
2023-01-24T16:44:19.534Z,-3.60
2023-01-24T16:49:23.292Z,-3.60
2023-01-24T16:54:28.437Z,-3.62
2023-01-24T16:59:32.104Z,-3.62
2023-01-24T17:04:36.072Z,-3.61
2023-01-24T17:09:41.180Z,-3.63
2023-01-24T17:14:45.067Z,-3.64
2023-01-24T17:19:48.676Z,-3.66
2023-01-24T17:24:53.573Z,-3.68
2023-01-24T17:29:57.499Z,-3.68
2023-01-24T17:35:01.135Z,-3.71
2023-01-24T17:40:07.750Z,-3.69
2023-01-24T17:45:14.293Z,-3.70
2023-01-24T17:50:18.170Z,-3.69
2023-01-24T17:55:23.109Z,-3.71
2023-01-24T18:00:27.008Z,-3.72
2023-01-24T18:05:30.678Z,-3.73
2023-01-24T18:10:39.106Z,-3.77
2023-01-24T18:15:42.967Z,-3.76
2023-01-24T18:20:46.427Z,-3.78
2023-01-24T18:25:51.527Z,-3.78
2023-01-24T18:30:55.110Z,-3.82
2023-01-24T18:35:58.742Z,-3.85
2023-01-24T18:41:03.876Z,-3.88
2023-01-24T18:46:08.769Z,-3.88
2023-01-24T18:51:14.411Z,-3.90
2023-01-24T18:56:19.343Z,-3.94
2023-01-24T19:01:26.003Z,-3.99
2023-01-24T19:06:31.277Z,-3.97
2023-01-24T19:11:38.891Z,-4.04
2023-01-24T19:16:44.030Z,-4.03
2023-01-24T19:21:48.319Z,-4.04
2023-01-24T19:26:53.331Z,-4.00
2023-01-24T19:31:56.746Z,-3.96
2023-01-24T19:37:00.173Z,-3.97
2023-01-24T19:42:05.401Z,-3.94
2023-01-24T19:47:08.837Z,-3.91
2023-01-24T19:52:12.216Z,-3.90
2023-01-24T19:57:17.039Z,-3.87
2023-01-24T20:02:20.618Z,-3.87
2023-01-24T20:07:24.120Z,-3.83
2023-01-24T20:12:29.510Z,-3.83
2023-01-24T20:17:32.849Z,-3.86
2023-01-24T20:22:36.148Z,-3.87
2023-01-24T20:27:41.030Z,-3.87
2023-01-24T20:32:44.617Z,-3.86
2023-01-24T20:37:47.952Z,-3.84
2023-01-24T20:42:52.933Z,-3.86
2023-01-24T20:47:56.403Z,-3.79
2023-01-24T20:52:59.635Z,-3.77
2023-01-24T20:58:04.360Z,-3.76
2023-01-24T21:03:07.866Z,-3.73
2023-01-24T21:08:11.507Z,-3.70
2023-01-24T21:13:16.975Z,-3.75
2023-01-24T21:18:20.324Z,-3.66
2023-01-24T21:23:27.065Z,-3.63
2023-01-24T21:28:31.863Z,-3.60
2023-01-24T21:33:35.450Z,-3.57
2023-01-24T21:38:38.884Z,-3.56
2023-01-24T21:43:43.614Z,-3.56
2023-01-24T21:49:04.446Z,-3.56
2023-01-24T21:54:10.413Z,-3.55
2023-01-24T21:59:15.461Z,-3.52
2023-01-24T22:04:19.340Z,-3.46
2023-01-24T22:09:22.728Z,-3.45
2023-01-24T22:14:30.034Z,-3.43
2023-01-24T22:19:41.298Z,-3.39
2023-01-24T22:24:55.283Z,-3.37
2023-01-24T22:30:00.902Z,-3.38
2023-01-24T22:35:04.743Z,-3.37
2023-01-24T22:40:09.688Z,-3.35
2023-01-24T22:45:14.839Z,-3.35
2023-01-24T22:50:20.735Z,-3.42
2023-01-24T22:55:24.078Z,-3.36
2023-01-24T23:00:28.899Z,-3.33
2023-01-24T23:05:32.703Z,-3.32
2023-01-24T23:10:36.147Z,-3.32
2023-01-24T23:15:58.063Z,-3.36
2023-01-24T23:21:18.485Z,-3.37
2023-01-24T23:26:21.953Z,-3.37
2023-01-24T23:31:26.812Z,-3.35
2023-01-24T23:36:31.674Z,-3.32
2023-01-24T23:41:35.030Z,-3.29
2023-01-24T23:46:39.727Z,-3.26
2023-01-24T23:51:43.058Z,-3.24
2023-01-24T23:56:46.413Z,-3.22
